Time;durP1;ratioP1;P1;durP2;ratioP2;P2;SDS_P1;SDS_P2;PMS_P1;PMS_P2;Temp;Humidity;BMP_temperature;BMP_pressure;BME280_temperature;BME280_humidity;BME280_pressure;Samples;Min_cycle;Max_cycle;Signal;HPM_P1;HPM_P2
2023/08/02 00:01:31;;;;;;;;;;;;;;;29.85;41.19;99949.04;102300;1304;61445;-82
2023/08/02 00:03:56;;;;;;;;;;;;;;;29.84;41.06;99947.43;102228;1302;61518;-82
2023/08/02 00:06:22;;;;;;;;;;;;;;;29.84;41.07;99947.30;102245;1303;61413;-82
2023/08/02 00:08:47;;;;;;;;;;;;;;;29.85;40.95;99947.83;102212;1302;61422;-82
2023/08/02 00:11:16;;;;;;;;;;;;;;;29.84;41.22;99949.48;102269;1302;61412;-82
2023/08/02 00:13:42;;;;;;;;;;;;;;;29.84;40.96;99956.77;102298;1303;62730;-82
2023/08/02 00:16:08;;;;;;;;;;;;;;;29.84;41.10;99955.89;102189;1302;61440;-82
2023/08/02 00:18:34;;;;;;;;;;;;;;;29.84;41.03;99958.40;102383;1303;62140;-82
2023/08/02 00:20:59;;;;;;;;;;;;;;;29.84;40.94;99960.95;102194;1306;61371;-82
2023/08/02 00:23:25;;;;;;;;;;;;;;;29.84;41.14;99961.66;102243;1302;61499;-82
2023/08/02 00:25:51;;;;;;;;;;;;;;;29.84;41.17;99960.99;102259;1308;61352;-82
2023/08/02 00:28:17;;;;;;;;;;;;;;;29.83;41.35;99962.13;102319;1302;65658;-82
2023/08/02 00:30:46;;;;;;;;;;;;;;;29.83;41.07;99961.58;102290;1302;61326;-82
2023/08/02 00:33:11;;;;;;;;;;;;;;;29.83;41.12;99960.27;102272;1302;61473;-82
2023/08/02 00:35:42;;;;;;;;;;;;;;;29.83;41.22;99964.13;102330;1302;61387;-82
2023/08/02 00:38:08;;;;;;;;;;;;;;;29.83;41.21;99960.89;102248;1303;65883;-82
2023/08/02 00:40:33;;;;;;;;;;;;;;;29.83;41.14;99962.91;102238;1302;61422;-82
2023/08/02 00:42:59;;;;;;;;;;;;;;;29.83;41.17;99966.14;102248;1303;61429;-82
2023/08/02 00:45:24;;;;;;;;;;;;;;;29.83;41.25;99963.83;102240;1302;61417;-82
2023/08/02 00:47:49;;;;;;;;;;;;;;;29.83;41.09;99963.48;102265;1308;61421;-82
2023/08/02 00:50:15;;;;;;;;;;;;;;;29.83;41.07;99963.59;102346;1308;61356;-82
2023/08/02 00:52:40;;;;;;;;;;;;;;;29.82;41.01;99965.31;102249;1303;61508;-82
2023/08/02 00:55:06;;;;;;;;;;;;;;;29.82;41.24;99969.14;102265;1308;61367;-82
2023/08/02 00:57:31;;;;;;;;;;;;;;;29.82;41.30;99966.58;102290;1302;61442;-82
2023/08/02 00:59:57;;;;;;;;;;;;;;;29.82;41.30;99963.15;102281;1307;61419;-82
2023/08/02 01:02:22;;;;;;;;;;;;;;;29.82;41.24;99963.14;102277;1302;65711;-82
2023/08/02 01:04:48;;;;;;;;;;;;;;;29.82;41.13;99965.93;102278;1302;61559;-82
2023/08/02 01:07:32;;;;;;;;;;;;;;;29.82;41.02;99967.38;102313;1302;61367;-82
2023/08/02 01:10:08;;;;;;;;;;;;;;;29.82;41.37;99965.39;102277;1308;63821;-82
2023/08/02 01:12:34;;;;;;;;;;;;;;;29.81;41.43;99960.91;102305;1302;65739;-82
2023/08/02 01:14:59;;;;;;;;;;;;;;;29.81;41.19;99958.02;102248;1302;61415;-82
2023/08/02 01:17:26;;;;;;;;;;;;;;;29.81;41.21;99964.17;102260;1303;62561;-82
2023/08/02 01:19:51;;;;;;;;;;;;;;;29.81;41.22;99963.13;102243;1303;61374;-82
2023/08/02 01:22:17;;;;;;;;;;;;;;;29.81;41.31;99959.16;102270;1302;61422;-82
2023/08/02 01:24:42;;;;;;;;;;;;;;;29.81;41.37;99959.48;102420;1308;61428;-82
2023/08/02 01:27:13;;;;;;;;;;;;;;;29.81;41.11;99957.52;102377;1303;61287;-82
2023/08/02 01:29:40;;;;;;;;;;;;;;;29.80;41.33;99956.84;102317;1302;61413;-82
2023/08/02 01:32:06;;;;;;;;;;;;;;;29.81;41.30;99953.58;102227;1302;63938;-82
2023/08/02 01:34:31;;;;;;;;;;;;;;;29.80;41.22;99958.13;102233;1303;61466;-82
2023/08/02 01:36:56;;;;;;;;;;;;;;;29.79;41.37;99953.14;102279;1302;61387;-82
2023/08/02 01:39:22;;;;;;;;;;;;;;;29.80;41.20;99958.85;102345;1303;61515;-82
2023/08/02 01:41:47;;;;;;;;;;;;;;;29.80;41.15;99959.77;102365;1308;61412;-82
2023/08/02 01:44:13;;;;;;;;;;;;;;;29.80;41.43;99961.41;102335;1303;61439;-82
2023/08/02 01:46:38;;;;;;;;;;;;;;;29.80;41.36;99960.94;102241;1308;61361;-82
2023/08/02 01:49:04;;;;;;;;;;;;;;;29.80;41.10;99960.70;102326;1303;61489;-82
2023/08/02 01:51:29;;;;;;;;;;;;;;;29.80;41.29;99960.39;102306;1302;61525;-82
2023/08/02 01:53:54;;;;;;;;;;;;;;;29.79;41.24;99961.51;102327;1303;61460;-82
2023/08/02 01:56:20;;;;;;;;;;;;;;;29.79;41.33;99961.59;102301;1305;61350;-82
2023/08/02 01:58:45;;;;;;;;;;;;;;;29.79;41.17;99962.67;102302;1303;61448;-82
2023/08/02 02:01:11;;;;;;;;;;;;;;;29.79;41.24;99960.13;102332;1303;61841;-82
2023/08/02 02:03:36;;;;;;;;;;;;;;;29.78;41.16;99963.48;102296;1305;62124;-82
2023/08/02 02:06:01;;;;;;;;;;;;;;;29.78;41.33;99958.80;102241;1303;61559;-82
2023/08/02 02:08:27;;;;;;;;;;;;;;;29.78;41.22;99963.88;102336;1302;61544;-82
2023/08/02 02:10:53;;;;;;;;;;;;;;;29.78;41.29;99965.30;102302;1304;61389;-82
2023/08/02 02:13:18;;;;;;;;;;;;;;;29.78;41.29;99963.72;102360;1308;61422;-82
2023/08/02 02:15:43;;;;;;;;;;;;;;;29.78;41.26;99963.16;102288;1302;61506;-82
2023/08/02 02:18:09;;;;;;;;;;;;;;;29.78;41.25;99956.27;102291;1306;61409;-82
2023/08/02 02:20:34;;;;;;;;;;;;;;;29.77;41.24;99954.33;102298;1305;61298;-82
2023/08/02 02:23:00;;;;;;;;;;;;;;;29.78;41.27;99953.19;102218;1307;61928;-82
2023/08/02 02:25:25;;;;;;;;;;;;;;;29.77;41.19;99943.82;102243;1303;61361;-82
2023/08/02 02:27:51;;;;;;;;;;;;;;;29.77;41.34;99947.43;102330;1302;61476;-82
2023/08/02 02:30:16;;;;;;;;;;;;;;;29.77;41.43;99946.54;102331;1302;61735;-82
2023/08/02 02:32:41;;;;;;;;;;;;;;;29.76;41.36;99940.27;102255;1303;61439;-82
2023/08/02 02:35:07;;;;;;;;;;;;;;;29.77;41.29;99941.15;102230;1303;61793;-82
2023/08/02 02:37:32;;;;;;;;;;;;;;;29.76;41.31;99939.17;102287;1305;61428;-82
2023/08/02 02:39:58;;;;;;;;;;;;;;;29.76;41.35;99942.11;102318;1303;61312;-82
2023/08/02 02:42:23;;;;;;;;;;;;;;;29.76;41.34;99943.57;102301;1303;61425;-82
2023/08/02 02:44:49;;;;;;;;;;;;;;;29.76;41.37;99944.66;102315;1305;61421;-82
2023/08/02 02:47:14;;;;;;;;;;;;;;;29.76;41.30;99943.05;102321;1306;61454;-82
2023/08/02 02:49:39;;;;;;;;;;;;;;;29.76;41.17;99945.02;102333;1305;61457;-82
2023/08/02 02:52:06;;;;;;;;;;;;;;;29.76;41.29;99948.16;102274;1303;61381;-82
2023/08/02 02:54:31;;;;;;;;;;;;;;;29.76;41.47;99946.48;102374;1308;61469;-82
2023/08/02 02:56:57;;;;;;;;;;;;;;;29.76;41.36;99940.54;102288;1308;61421;-82
2023/08/02 02:59:23;;;;;;;;;;;;;;;29.76;41.22;99945.05;102260;1302;61413;-82
2023/08/02 03:01:49;;;;;;;;;;;;;;;29.75;41.45;99945.27;102328;1302;61425;-82
2023/08/02 03:04:14;;;;;;;;;;;;;;;29.75;41.46;99943.46;102311;1305;61439;-82
2023/08/02 03:06:40;;;;;;;;;;;;;;;29.75;41.37;99942.20;102263;1303;61307;-82
2023/08/02 03:09:05;;;;;;;;;;;;;;;29.75;41.47;99943.84;102207;1303;61355;-82
2023/08/02 03:11:31;;;;;;;;;;;;;;;29.75;41.41;99943.67;102267;1302;61515;-82
2023/08/02 03:13:58;;;;;;;;;;;;;;;29.75;41.35;99943.30;102214;1303;61383;-82
2023/08/02 03:16:23;;;;;;;;;;;;;;;29.75;41.35;99947.27;102260;1305;61440;-82
2023/08/02 03:18:49;;;;;;;;;;;;;;;29.75;41.44;99947.27;102356;1306;61553;-82
2023/08/02 03:21:15;;;;;;;;;;;;;;;29.75;41.39;99950.00;102271;1302;63937;-82
2023/08/02 03:23:44;;;;;;;;;;;;;;;29.75;41.56;99952.73;102228;1302;61421;-82
2023/08/02 03:26:10;;;;;;;;;;;;;;;29.75;41.45;99951.45;102080;1308;61600;-82
2023/08/02 03:28:35;;;;;;;;;;;;;;;29.75;41.32;99955.64;102227;1303;61365;-82
2023/08/02 03:31:01;;;;;;;;;;;;;;;29.75;41.56;99953.70;102313;1302;61412;-82
2023/08/02 03:33:26;;;;;;;;;;;;;;;29.75;41.55;99950.21;102403;1308;61358;-82
2023/08/02 03:35:51;;;;;;;;;;;;;;;29.76;41.57;99946.15;102347;1301;61413;-82
2023/08/02 03:38:17;;;;;;;;;;;;;;;29.75;41.48;99941.54;102244;1303;61333;-82
2023/08/02 03:40:43;;;;;;;;;;;;;;;29.75;41.48;99941.34;102291;1303;61520;-82
2023/08/02 03:43:08;;;;;;;;;;;;;;;29.75;41.53;99939.19;102256;1305;61429;-82
2023/08/02 03:45:34;;;;;;;;;;;;;;;29.75;41.47;99942.41;102278;1302;61379;-82
2023/08/02 03:48:00;;;;;;;;;;;;;;;29.75;41.60;99948.91;102423;1301;61381;-82
2023/08/02 03:50:26;;;;;;;;;;;;;;;29.75;41.61;99952.01;102366;1308;61375;-82
2023/08/02 03:52:52;;;;;;;;;;;;;;;29.75;41.72;99952.36;102275;1303;61333;-82
2023/08/02 03:55:17;;;;;;;;;;;;;;;29.75;41.55;99955.98;102292;1309;61459;-82
2023/08/02 03:57:43;;;;;;;;;;;;;;;29.75;41.55;99953.46;102312;1301;61419;-82
2023/08/02 04:00:08;;;;;;;;;;;;;;;29.75;41.67;99952.92;102396;1305;61987;-82
2023/08/02 04:02:34;;;;;;;;;;;;;;;29.76;41.54;99949.24;102233;1303;61412;-82
2023/08/02 04:05:01;;;;;;;;;;;;;;;29.76;41.48;99949.92;102323;1302;61495;-82
2023/08/02 04:07:26;;;;;;;;;;;;;;;29.76;41.65;99950.52;102322;1305;61327;-82
2023/08/02 04:09:52;;;;;;;;;;;;;;;29.76;41.57;99952.11;102270;1302;61448;-82
2023/08/02 04:12:19;;;;;;;;;;;;;;;29.76;41.67;99955.91;102348;1303;61346;-82
2023/08/02 04:14:45;;;;;;;;;;;;;;;29.76;41.51;99954.45;102304;1301;61413;-82
2023/08/02 04:17:10;;;;;;;;;;;;;;;29.77;41.71;99953.83;102276;1305;61320;-82
2023/08/02 04:19:35;;;;;;;;;;;;;;;29.77;41.51;99949.67;102315;1302;61413;-82
2023/08/02 04:22:01;;;;;;;;;;;;;;;29.77;41.58;99952.20;102346;1307;61453;-82
2023/08/02 04:24:26;;;;;;;;;;;;;;;29.77;41.49;99948.73;102289;1301;61393;-82
2023/08/02 04:26:52;;;;;;;;;;;;;;;29.78;41.68;99947.77;102184;1312;61386;-82
2023/08/02 04:29:17;;;;;;;;;;;;;;;29.77;41.55;99946.71;102331;1303;61527;-82
2023/08/02 04:31:42;;;;;;;;;;;;;;;29.78;41.63;99947.39;102278;1303;63953;-82
2023/08/02 04:34:08;;;;;;;;;;;;;;;29.78;41.63;99946.47;102329;1308;62520;-82
2023/08/02 04:36:34;;;;;;;;;;;;;;;29.78;41.54;99944.25;102234;1305;61258;-82
2023/08/02 04:39:02;;;;;;;;;;;;;;;29.79;41.78;99943.46;102388;1302;61409;-82
2023/08/02 04:41:29;;;;;;;;;;;;;;;29.79;41.72;99944.02;102310;1302;63804;-82
2023/08/02 04:43:54;;;;;;;;;;;;;;;29.79;41.53;99942.88;102256;1305;61425;-82
2023/08/02 04:46:20;;;;;;;;;;;;;;;29.78;41.53;99943.16;102302;1303;61422;-82
2023/08/02 04:48:46;;;;;;;;;;;;;;;29.78;41.57;99938.31;102298;1303;62010;-82
2023/08/02 04:51:11;;;;;;;;;;;;;;;29.78;41.65;99933.28;102250;1303;61454;-82
2023/08/02 04:53:37;;;;;;;;;;;;;;;29.77;41.56;99931.13;102346;1303;61410;-82
2023/08/02 04:56:02;;;;;;;;;;;;;;;29.78;41.51;99932.69;102370;1308;61518;-82
2023/08/02 04:58:28;;;;;;;;;;;;;;;29.77;41.61;99933.52;102312;1302;61424;-82
2023/08/02 05:00:54;;;;;;;;;;;;;;;29.76;41.48;99935.54;102261;1303;61460;-82
2023/08/02 05:03:19;;;;;;;;;;;;;;;29.76;41.58;99931.39;102270;1309;61422;-82
2023/08/02 05:05:45;;;;;;;;;;;;;;;29.76;41.53;99932.11;102526;1308;61320;-82
2023/08/02 05:08:11;;;;;;;;;;;;;;;29.76;41.58;99932.52;102311;1306;62224;-82
2023/08/02 05:10:37;;;;;;;;;;;;;;;29.76;41.50;99936.70;102875;1305;61456;-82
2023/08/02 05:13:05;;;;;;;;;;;;;;;29.75;41.46;99937.33;102785;1303;61416;-82
2023/08/02 05:15:36;;;;;;;;;;;;;;;29.75;41.33;99939.13;102837;1303;63857;-82
2023/08/02 05:18:01;;;;;;;;;;;;;;;29.76;41.57;99938.90;102592;1306;65832;-82
2023/08/02 05:20:30;;;;;;;;;;;;;;;29.76;41.43;99938.16;102566;1300;61367;-82
2023/08/02 05:22:55;;;;;;;;;;;;;;;29.76;41.51;99938.27;102832;1303;61897;-82
2023/08/02 05:25:21;;;;;;;;;;;;;;;29.78;41.43;99943.61;102507;1300;61524;-82
2023/08/02 05:27:46;;;;;;;;;;;;;;;29.77;41.29;99947.84;102457;1308;61427;-82
2023/08/02 05:30:12;;;;;;;;;;;;;;;29.76;41.50;99951.69;102459;1300;61341;-82
2023/08/02 05:32:37;;;;;;;;;;;;;;;29.76;41.31;99953.77;102501;1305;61450;-82
2023/08/02 05:35:03;;;;;;;;;;;;;;;29.75;41.40;99955.30;102390;1302;61323;-82
2023/08/02 05:37:30;;;;;;;;;;;;;;;29.74;41.34;99957.59;102443;1304;63676;-82
2023/08/02 05:39:55;;;;;;;;;;;;;;;29.74;41.37;99961.64;102646;1305;61536;-82
2023/08/02 05:42:21;;;;;;;;;;;;;;;29.73;41.35;99962.27;102688;1305;61505;-82
2023/08/02 05:44:46;;;;;;;;;;;;;;;29.73;41.28;99960.64;102529;1306;61461;-82
2023/08/02 05:47:12;;;;;;;;;;;;;;;29.72;41.39;99962.20;102626;1302;61288;-82
2023/08/02 05:49:37;;;;;;;;;;;;;;;29.72;41.18;99962.92;102315;1300;61428;-82
2023/08/02 05:52:03;;;;;;;;;;;;;;;29.72;41.31;99964.16;102676;1300;61508;-82
2023/08/02 05:54:28;;;;;;;;;;;;;;;29.71;41.36;99957.39;102634;1305;61378;-82
2023/08/02 05:56:54;;;;;;;;;;;;;;;29.71;41.35;99961.95;102582;1305;61436;-82
2023/08/02 05:59:19;;;;;;;;;;;;;;;29.71;41.34;99964.08;102385;1305;61898;-82
2023/08/02 06:01:44;;;;;;;;;;;;;;;29.72;41.44;99964.42;102792;1303;63736;-82
2023/08/02 06:04:10;;;;;;;;;;;;;;;29.71;41.31;99967.04;102645;1302;61419;-81
2023/08/02 06:06:37;;;;;;;;;;;;;;;29.71;41.38;99967.77;102962;1306;61508;-81
2023/08/02 06:09:04;;;;;;;;;;;;;;;29.71;41.25;99966.30;102768;1305;61389;-82
2023/08/02 06:11:29;;;;;;;;;;;;;;;29.71;41.25;99964.71;102785;1304;61443;-81
2023/08/02 06:13:55;;;;;;;;;;;;;;;29.71;41.00;99966.50;102878;1302;61391;-81
2023/08/02 06:16:22;;;;;;;;;;;;;;;29.71;41.22;99970.14;102646;1304;61964;-82
2023/08/02 06:18:48;;;;;;;;;;;;;;;29.71;41.32;99973.03;102610;1305;61307;-81
2023/08/02 06:21:15;;;;;;;;;;;;;;;29.70;41.21;99967.11;102459;1308;61496;-81
2023/08/02 06:23:40;;;;;;;;;;;;;;;29.71;41.25;99970.98;102494;1300;61497;-81
2023/08/02 06:26:06;;;;;;;;;;;;;;;29.71;41.23;99966.00;102545;1305;61443;-81
2023/08/02 06:28:31;;;;;;;;;;;;;;;29.71;41.05;99958.38;102303;1302;61313;-82
2023/08/02 06:30:57;;;;;;;;;;;;;;;29.71;41.10;99953.11;102258;1304;61811;-82
2023/08/02 06:33:22;;;;;;;;;;;;;;;29.71;41.03;99954.58;102455;1308;61932;-81
2023/08/02 06:35:48;;;;;;;;;;;;;;;29.70;41.27;99954.77;102434;1300;61393;-81
2023/08/02 06:38:13;;;;;;;;;;;;;;;29.70;40.94;99955.00;102811;1306;61325;-81
2023/08/02 06:40:38;;;;;;;;;;;;;;;29.70;41.06;99954.98;102961;1305;61423;-81
2023/08/02 06:43:04;;;;;;;;;;;;;;;29.70;41.06;99964.45;102616;1299;61304;-81
2023/08/02 06:45:31;;;;;;;;;;;;;;;29.70;41.23;99973.27;102314;1302;61503;-82
2023/08/02 06:47:56;;;;;;;;;;;;;;;29.70;41.16;99978.80;102476;1303;61329;-82
2023/08/02 06:50:21;;;;;;;;;;;;;;;29.69;41.14;99988.83;102590;1305;61922;-81
2023/08/02 06:52:47;;;;;;;;;;;;;;;29.70;41.14;99992.44;102356;1306;61355;-82
2023/08/02 06:55:12;;;;;;;;;;;;;;;29.69;41.36;99994.05;102357;1306;61417;-81
2023/08/02 06:57:38;;;;;;;;;;;;;;;29.69;41.21;99993.92;102755;1313;61306;-81
2023/08/02 07:00:04;;;;;;;;;;;;;;;29.69;41.10;99988.86;102548;1304;61386;-81
2023/08/02 07:02:30;;;;;;;;;;;;;;;29.69;41.20;99992.50;102423;1306;61513;-82
2023/08/02 07:04:55;;;;;;;;;;;;;;;29.70;40.95;99996.40;102415;1306;62045;-81
2023/08/02 07:07:21;;;;;;;;;;;;;;;29.69;41.21;99994.05;103061;1299;61422;-81
2023/08/02 07:09:47;;;;;;;;;;;;;;;29.69;40.94;99991.17;102316;1300;362787;-81
2023/08/02 07:12:13;;;;;;;;;;;;;;;29.70;41.02;99983.36;102493;1306;61695;-82
2023/08/02 07:14:38;;;;;;;;;;;;;;;29.70;40.88;99975.91;102531;1305;61439;-81
2023/08/02 07:17:04;;;;;;;;;;;;;;;29.70;41.28;99974.61;102733;1300;61406;-81
2023/08/02 07:19:30;;;;;;;;;;;;;;;29.70;41.14;99974.23;102603;1304;61416;-81
2023/08/02 07:21:55;;;;;;;;;;;;;;;29.71;41.00;99980.35;102632;1300;61438;-81
2023/08/02 07:24:21;;;;;;;;;;;;;;;29.71;40.98;99986.33;102758;1301;65682;-82
2023/08/02 07:26:46;;;;;;;;;;;;;;;29.71;40.98;99977.93;103054;1300;61460;-81
2023/08/02 07:29:11;;;;;;;;;;;;;;;29.72;41.08;99970.35;102561;1306;61362;-81
2023/08/02 07:31:37;;;;;;;;;;;;;;;29.72;41.13;99963.92;102611;1306;61421;-81
2023/08/02 07:34:03;;;;;;;;;;;;;;;29.73;41.04;99965.33;102493;1306;61502;-81
2023/08/02 07:36:29;;;;;;;;;;;;;;;29.74;40.95;99966.88;102667;1303;66876;-81
2023/08/02 07:38:54;;;;;;;;;;;;;;;29.74;40.95;99963.95;102668;1303;61299;-82
2023/08/02 07:41:20;;;;;;;;;;;;;;;29.74;41.06;99964.63;102733;1306;61425;-81
2023/08/02 07:43:45;;;;;;;;;;;;;;;29.75;40.93;99962.41;102647;1304;61428;-81
2023/08/02 07:46:20;;;;;;;;;;;;;;;29.75;40.94;99961.08;103046;1305;61475;-81
2023/08/02 07:48:45;;;;;;;;;;;;;;;29.76;40.87;99954.99;102516;1306;65598;-81
2023/08/02 07:51:11;;;;;;;;;;;;;;;29.77;40.90;99950.56;102419;1305;61444;-81
2023/08/02 07:53:38;;;;;;;;;;;;;;;29.78;40.84;99949.55;102688;1303;61430;-82
2023/08/02 07:56:04;;;;;;;;;;;;;;;29.78;40.86;99951.52;102520;1300;61406;-81
2023/08/02 07:58:29;;;;;;;;;;;;;;;29.78;40.88;99952.60;102934;1306;61410;-81
2023/08/02 08:00:56;;;;;;;;;;;;;;;29.79;40.85;99954.02;102855;1300;61448;-82
2023/08/02 08:03:21;;;;;;;;;;;;;;;29.79;41.01;99956.33;102849;1300;61422;-82
2023/08/02 08:05:47;;;;;;;;;;;;;;;29.79;40.86;99954.14;102785;1300;61526;-81
2023/08/02 08:08:14;;;;;;;;;;;;;;;29.80;40.83;99959.64;102792;1305;63948;-81
2023/08/02 08:10:39;;;;;;;;;;;;;;;29.81;40.92;99965.48;102720;1306;61297;-82
2023/08/02 08:13:04;;;;;;;;;;;;;;;29.81;40.93;99965.60;102947;1305;61370;-82
2023/08/02 08:15:30;;;;;;;;;;;;;;;29.83;40.85;99962.02;102722;1300;61399;-82
2023/08/02 08:17:55;;;;;;;;;;;;;;;29.84;40.82;99963.00;102490;1299;61518;-81
2023/08/02 08:20:21;;;;;;;;;;;;;;;29.84;41.01;99963.80;102923;1300;61301;-81
2023/08/02 08:22:47;;;;;;;;;;;;;;;29.85;41.01;99960.67;102972;1305;61419;-82
2023/08/02 08:25:13;;;;;;;;;;;;;;;29.85;40.84;99966.79;102828;1300;61410;-81
2023/08/02 08:27:40;;;;;;;;;;;;;;;29.86;40.79;99967.09;102738;1302;61843;-81
2023/08/02 08:30:06;;;;;;;;;;;;;;;29.86;40.80;99966.48;102898;1303;61336;-82
2023/08/02 08:32:32;;;;;;;;;;;;;;;29.87;40.78;99968.02;102571;1300;61295;-81
2023/08/02 08:34:58;;;;;;;;;;;;;;;29.88;40.72;99968.15;102880;1304;61444;-82
2023/08/02 08:37:24;;;;;;;;;;;;;;;29.89;40.82;99973.11;102582;1300;61460;-81
2023/08/02 08:39:49;;;;;;;;;;;;;;;29.89;40.73;99969.55;102640;1300;61694;-82
2023/08/02 08:42:15;;;;;;;;;;;;;;;29.90;40.79;99969.27;103045;1301;64103;-81
2023/08/02 08:44:41;;;;;;;;;;;;;;;29.91;40.84;99973.67;102737;1305;61537;-82
2023/08/02 08:47:06;;;;;;;;;;;;;;;29.92;40.61;99974.52;102955;1303;61613;-82
2023/08/02 08:49:32;;;;;;;;;;;;;;;29.92;40.74;99971.01;102670;1300;61513;-82
2023/08/02 08:51:57;;;;;;;;;;;;;;;29.93;40.67;99971.83;102571;1300;61445;-81
2023/08/02 08:54:26;;;;;;;;;;;;;;;29.94;40.62;99962.98;102651;1300;62249;-81
2023/08/02 08:56:51;;;;;;;;;;;;;;;29.95;40.64;99960.37;102637;1300;65681;-81
2023/08/02 08:59:16;;;;;;;;;;;;;;;29.95;40.56;99956.57;102713;1300;61315;-82
2023/08/02 09:01:42;;;;;;;;;;;;;;;29.96;40.50;99954.31;102636;1299;61437;-81
2023/08/02 09:04:07;;;;;;;;;;;;;;;29.96;40.60;99953.73;102464;1303;61410;-81
2023/08/02 09:06:33;;;;;;;;;;;;;;;29.96;40.65;99956.09;102541;1300;61478;-81
2023/08/02 09:08:59;;;;;;;;;;;;;;;29.97;40.56;99955.84;102669;1306;66836;-82
2023/08/02 09:11:25;;;;;;;;;;;;;;;29.98;40.54;99951.20;102542;1300;61511;-81
2023/08/02 09:14:07;;;;;;;;;;;;;;;29.97;40.55;99951.20;102682;1300;61328;-82
2023/08/02 09:16:35;;;;;;;;;;;;;;;29.98;40.57;99955.81;103088;1299;64008;-82
2023/08/02 09:19:00;;;;;;;;;;;;;;;29.98;40.59;99958.13;102627;1299;65884;-81
2023/08/02 09:21:26;;;;;;;;;;;;;;;29.99;40.56;99953.93;102618;1304;61334;-81
2023/08/02 09:23:58;;;;;;;;;;;;;;;30.00;40.47;99949.60;102562;1305;62263;-81
2023/08/02 09:26:24;;;;;;;;;;;;;;;30.00;40.37;99955.95;102945;1300;63972;-82
2023/08/02 09:28:59;;;;;;;;;;;;;;;30.01;40.53;99952.96;102773;1303;61953;-81
2023/08/02 09:31:25;;;;;;;;;;;;;;;30.01;40.28;99957.78;102905;1300;61349;-81
2023/08/02 09:33:51;;;;;;;;;;;;;;;30.02;40.52;99959.20;102834;1302;61478;-82
2023/08/02 09:36:23;;;;;;;;;;;;;;;30.02;40.39;99961.52;102899;1301;61309;-82
2023/08/02 09:39:08;;;;;;;;;;;;;;;30.02;40.21;99961.61;102511;1305;65959;-81
2023/08/02 09:41:33;;;;;;;;;;;;;;;30.03;40.36;99966.67;102414;1305;61413;-81
2023/08/02 09:43:59;;;;;;;;;;;;;;;30.03;40.42;99964.25;102536;1300;61447;-82
2023/08/02 09:46:29;;;;;;;;;;;;;;;30.03;40.40;99955.38;102822;1300;61364;-82
2023/08/02 09:48:57;;;;;;;;;;;;;;;30.03;40.35;99953.38;102508;1300;65877;-81
2023/08/02 09:51:39;;;;;;;;;;;;;;;30.03;40.26;99951.73;102570;1302;61339;-81
2023/08/02 09:54:05;;;;;;;;;;;;;;;30.03;40.34;99956.05;102568;1305;61435;-81
2023/08/02 09:56:30;;;;;;;;;;;;;;;30.03;40.34;99959.58;102661;1304;61419;-81
2023/08/02 09:58:56;;;;;;;;;;;;;;;30.03;40.31;99958.27;102563;1300;61460;-82
2023/08/02 10:01:26;;;;;;;;;;;;;;;30.03;40.19;99952.11;102474;1306;61906;-82
2023/08/02 10:03:57;;;;;;;;;;;;;;;30.03;40.22;99954.88;102448;1303;61894;-81
2023/08/02 10:06:27;;;;;;;;;;;;;;;30.03;40.31;99951.58;102585;1307;63971;-81
2023/08/02 10:08:54;;;;;;;;;;;;;;;30.03;40.29;99949.02;102523;1302;65997;-82
2023/08/02 10:11:20;;;;;;;;;;;;;;;30.03;40.23;99947.80;102520;1303;61357;-81
2023/08/02 10:13:45;;;;;;;;;;;;;;;30.03;40.23;99950.86;102405;1302;61445;-81
2023/08/02 10:16:11;;;;;;;;;;;;;;;30.03;40.06;99952.80;102461;1308;61568;-81
2023/08/02 10:18:36;;;;;;;;;;;;;;;30.03;40.03;99950.98;102707;1302;61498;-81
2023/08/02 10:21:02;;;;;;;;;;;;;;;30.03;40.00;99949.58;102362;1306;61870;-81
2023/08/02 10:23:27;;;;;;;;;;;;;;;30.03;40.00;99947.73;102504;1309;61426;-82
2023/08/02 10:25:53;;;;;;;;;;;;;;;30.04;40.18;99934.83;102563;1303;61503;-81
2023/08/02 10:28:18;;;;;;;;;;;;;;;30.04;40.22;99930.98;102600;1306;61380;-82
2023/08/02 10:30:44;;;;;;;;;;;;;;;30.04;40.23;99927.14;102440;1302;61360;-81
2023/08/02 10:33:11;;;;;;;;;;;;;;;30.04;40.17;99924.23;102485;1300;61437;-82
2023/08/02 10:35:56;;;;;;;;;;;;;;;30.04;40.05;99928.77;102937;1300;61291;-81
2023/08/02 10:38:25;;;;;;;;;;;;;;;30.04;40.08;99928.19;103017;1300;61358;-82
2023/08/02 10:41:04;;;;;;;;;;;;;;;30.05;40.08;99927.44;103574;1299;63883;-82
2023/08/02 10:43:29;;;;;;;;;;;;;;;30.05;40.10;99924.85;102721;1301;65837;-82
2023/08/02 10:46:18;;;;;;;;;;;;;;;30.05;40.08;99920.83;102733;1303;61486;-81
2023/08/02 10:48:45;;;;;;;;;;;;;;;30.05;40.31;99925.84;102827;1300;61345;-82
2023/08/02 10:51:48;;;;;;;;;;;;;;;;;;;;;
2023/08/02 10:54:14;;;;;;;;;;;;;;;30.06;40.16;99918.57;102565;1300;65908;-81
2023/08/02 10:56:51;;;;;;;;;;;;;;;30.06;40.09;99920.52;102971;1300;61404;-81
2023/08/02 10:59:17;;;;;;;;;;;;;;;30.06;40.10;99921.95;102926;1303;61328;-82
2023/08/02 11:01:56;;;;;;;;;;;;;;;30.06;40.09;99921.63;102739;1300;61459;-82
2023/08/02 11:04:21;;;;;;;;;;;;;;;30.06;40.14;99920.54;102805;1305;65876;-82
2023/08/02 11:06:47;;;;;;;;;;;;;;;30.06;40.16;99918.15;102892;1300;61353;-82
2023/08/02 11:09:12;;;;;;;;;;;;;;;30.06;40.06;99913.09;102808;1301;61419;-81
2023/08/02 11:11:38;;;;;;;;;;;;;;;30.06;40.22;99918.31;102806;1300;61445;-82
2023/08/02 11:14:04;;;;;;;;;;;;;;;30.07;40.19;99914.98;102664;1305;61537;-81
2023/08/02 11:16:29;;;;;;;;;;;;;;;30.07;40.16;99919.17;102443;1300;65650;-82
2023/08/02 11:18:55;;;;;;;;;;;;;;;30.07;40.15;99914.64;102907;1305;61463;-81
2023/08/02 11:21:21;;;;;;;;;;;;;;;30.06;40.21;99912.67;103197;1300;61330;-81
2023/08/02 11:23:49;;;;;;;;;;;;;;;30.07;40.11;99908.62;102734;1300;61959;-81
2023/08/02 11:26:18;;;;;;;;;;;;;;;30.07;40.11;99905.86;104333;1299;61316;-82
2023/08/02 11:28:47;;;;;;;;;;;;;;;30.07;40.08;99905.33;103191;1300;61390;-82
2023/08/02 11:31:13;;;;;;;;;;;;;;;30.08;40.08;99903.40;103053;1300;61329;-82
2023/08/02 11:33:39;;;;;;;;;;;;;;;30.08;40.12;99907.38;102636;1308;61499;-81
2023/08/02 11:36:06;;;;;;;;;;;;;;;30.08;40.04;99906.09;102440;1300;61454;-82
2023/08/02 11:38:31;;;;;;;;;;;;;;;30.09;40.18;99904.25;102681;1302;61413;-81
2023/08/02 11:40:57;;;;;;;;;;;;;;;30.09;40.10;99897.34;102527;1300;61491;-81
2023/08/02 11:43:34;;;;;;;;;;;;;;;30.09;40.09;99892.73;102352;1303;61431;-81
2023/08/02 11:46:00;;;;;;;;;;;;;;;30.09;39.99;99889.16;102590;1300;65793;-82
2023/08/02 11:48:25;;;;;;;;;;;;;;;30.09;39.98;99884.77;102559;1300;62113;-82
2023/08/02 11:50:51;;;;;;;;;;;;;;;30.09;40.07;99890.77;102680;1300;61355;-81
2023/08/02 11:53:16;;;;;;;;;;;;;;;30.09;40.14;99887.91;102865;1300;61515;-81
2023/08/02 11:55:41;;;;;;;;;;;;;;;30.08;40.06;99881.62;102696;1308;61517;-82
2023/08/02 11:58:08;;;;;;;;;;;;;;;30.09;39.98;99881.35;102557;1300;61496;-82
2023/08/02 12:00:34;;;;;;;;;;;;;;;30.09;40.09;99878.66;102703;1299;62105;-82
2023/08/02 12:03:15;;;;;;;;;;;;;;;30.09;39.98;99873.05;102776;1300;61379;-82
2023/08/02 12:05:41;;;;;;;;;;;;;;;30.08;40.12;99871.41;102561;1300;64001;-82
2023/08/02 12:08:25;;;;;;;;;;;;;;;30.09;39.95;99869.91;102789;1303;61336;-82
2023/08/02 12:10:51;;;;;;;;;;;;;;;30.10;40.04;99877.08;102656;1303;61298;-82
2023/08/02 12:13:18;;;;;;;;;;;;;;;30.10;39.99;99873.06;102575;1303;61442;-82
2023/08/02 12:16:06;;;;;;;;;;;;;;;30.10;39.99;99871.27;102434;1303;61528;-82
2023/08/02 12:18:31;;;;;;;;;;;;;;;30.11;40.07;99868.77;102409;1303;65699;-83
2023/08/02 12:20:56;;;;;;;;;;;;;;;30.11;40.10;99865.61;102485;1303;61419;-82
2023/08/02 12:23:32;;;;;;;;;;;;;;;30.12;40.14;99866.13;102296;1303;61462;-82
2023/08/02 12:25:58;;;;;;;;;;;;;;;30.13;39.97;99871.70;102308;1303;64050;-82
2023/08/02 12:28:23;;;;;;;;;;;;;;;30.13;40.05;99870.39;102276;1305;61441;-82
2023/08/02 12:31:01;;;;;;;;;;;;;;;30.13;40.07;99866.77;102331;1302;61786;-82
2023/08/02 12:33:27;;;;;;;;;;;;;;;30.13;39.91;99868.56;102403;1303;61432;-81
2023/08/02 12:35:52;;;;;;;;;;;;;;;30.13;40.03;99865.51;102249;1303;61858;-81